^^
Datos históricos de la estación: Murcia-Puente Tocinos
Diario Informe para Enero 23, 2019 Unidades:  Ingés    Métrico   Ambas
Diario Semanal Mensual Anual
  Máxima: Mínima: Promedio:
Temperatura: 84.9 °F 60.1 °F 71.8 °F
Punto de rocio: 60.6 °F 42.1 °F 52.9 °F
Humedad: 82% 23.9% 57%
Velocidad viento: 11.4mph 0mph 4.7mph
Racha viento: 22mph - -
Viento- - ESE
Presión: 30 in 29.9 in -
Precipitación: 0 in    
 
 
Tabla de datos para Enero 23, 2019
Hora Temperatura Punto de rocio Presión Viento Velocidad viento Racha viento Humedad Intensidad lluvia(por hora) Nubes
00:04 65.1 °F 57.4 °F 30 in NE 5.9 mph 9 mph 76% 0 in
00:09 64.9 °F 57.2 °F 30 in NE 5.7 mph 9.2 mph 76% 0 in
00:14 64.9 °F 57.2 °F 30 in NE 5.4 mph 9.2 mph 76% 0 in
00:19 64.9 °F 57.4 °F 30 in NE 5.4 mph 9 mph 76.5% 0 in
00:24 64.8 °F 57.4 °F 30 in NE 5.4 mph 9 mph 77% 0 in
00:29 64.8 °F 57.4 °F 30 in NE 5.2 mph 8 mph 77% 0 in
00:34 64.8 °F 57.4 °F 30 in NE 4.7 mph 9.2 mph 77% 0 in
00:39 64.8 °F 57.4 °F 30 in NE 4.7 mph 9 mph 77.3% 0 in
00:44 64.6 °F 57.6 °F 30 in NE 4.7 mph 8.1 mph 78% 0 in
00:49 64.6 °F 57.6 °F 30 in NE 5 mph 8.1 mph 78% 0 in
00:54 64.6 °F 57.7 °F 30 in NE 5.4 mph 8 mph 78.5% 0 in
00:59 64.6 °F 57.9 °F 30 in NE 4.8 mph 6.9 mph 79% 0 in
01:04 64.6 °F 57.7 °F 30 in NE 4 mph 7.4 mph 79% 0 in
01:09 64.4 °F 57.9 °F 30 in NE 4 mph 7 mph 79.4% 0 in
01:14 64.2 °F 57.7 °F 30 in NE 4 mph 6.9 mph 79.2% 0 in
01:19 64 °F 57.7 °F 30 in NNE 3.9 mph 7 mph 80% 0 in
01:24 63.9 °F 57.7 °F 30 in NNE 3.6 mph 6.2 mph 80.4% 0 in
01:29 63.7 °F 57.6 °F 30 in NNE 3.7 mph 7.4 mph 81% 0 in
01:34 63.3 °F 57.4 °F 30 in NE 4 mph 8.5 mph 81% 0 in
01:39 63.1 °F 57.2 °F 30 in NE 4.3 mph 9 mph 81% 0 in
01:44 63.1 °F 57.2 °F 30 in NE 4.7 mph 7 mph 81% 0 in
01:49 63.1 °F 57 °F 30 in NE 4.5 mph 6.2 mph 80.2% 0 in
01:54 63.1 °F 56.8 °F 30 in NE 4 mph 6 mph 80% 0 in
01:59 63.1 °F 56.8 °F 30 in NE 3.7 mph 5 mph 80% 0 in
02:04 63.1 °F 56.5 °F 30 in NE 3.1 mph 5 mph 79.1% 0 in
02:09 63.1 °F 56.3 °F 30 in NE 2.7 mph 5 mph 78.2% 0 in
02:14 63.1 °F 55.9 °F 30 in NE 2 mph 5 mph 77.5% 0 in
02:19 63.1 °F 55.8 °F 30 in NE 2.2 mph 5 mph 77% 0 in
02:24 63.1 °F 55.6 °F 30 in NE 2.4 mph 5.8 mph 76.7% 0 in
02:29 63 °F 55.6 °F 30 in NE 2.5 mph 6 mph 76.9% 0 in
02:34 63 °F 55.6 °F 30 in NE 2.9 mph 3 mph 77% 0 in
02:39 63 °F 55.6 °F 30 in NE 1.7 mph   77% 0 in
02:44 63 °F 55.6 °F 30 in Calm   3.5 mph 77% 0 in
02:49 63 °F 55.2 °F 30 in Calm   3.5 mph 76% 0 in
02:54 62.8 °F 55 °F 30 in Calm   3.6 mph 76% 0 in
02:59 62.8 °F 55 °F 30 in NE 0.8 mph 5.8 mph 76% 0 in
03:04 62.6 °F 54.9 °F 30 in NE 2 mph 6 mph 76% 0 in
03:09 62.4 °F 54.9 °F 30 in NE 2 mph 4.6 mph 76% 0 in
03:14 62.4 °F 54.9 °F 30 in NE 2 mph 5 mph 76% 0 in
03:19 62.4 °F 54.9 °F 30 in NE 1.9 mph 5 mph 76% 0 in
03:24 62.4 °F 55 °F 30 in NE 1.8 mph   76.6% 0 in
03:29 62.6 °F 55.6 °F 30 in NE 1.2 mph 2 mph 77.7% 0 in
03:34 62.6 °F 55.6 °F 30 in Calm   2.9 mph 78% 0 in
03:39 62.8 °F 55.8 °F 30 in NE 0.5 mph 3 mph 78% 0 in
03:44 62.6 °F 55.6 °F 30 in NE 1.4 mph 2.9 mph 78% 0 in
03:49 62.4 °F 55.6 °F 30 in NE 0.9 mph 3 mph 78% 0 in
03:54 62.4 °F 55.6 °F 30 in Calm   2.4 mph 78% 0 in
03:59 62.4 °F 55.6 °F 30 in Calm   2.3 mph 78.3% 0 in
04:04 62.2 °F 55.8 °F 30 in Calm   1 mph 79.4% 0 in
04:09 62.2 °F 55.9 °F 30 in Calm     80% 0 in
04:14 62.1 °F 55.8 °F 30 in Calm   3.5 mph 80% 0 in
04:19 62.1 °F 56.1 °F 30 in Calm   3 mph 80.7% 0 in
04:24 61.9 °F 55.9 °F 30 in Calm   3 mph 81% 0 in
04:29 61.9 °F 55.9 °F 30 in Calm   3.1 mph 81% 0 in
04:34 61.5 °F 55.2 °F 30 in Calm   4.6 mph 79.8% 0 in
04:39 61.3 °F 54.7 °F 30 in NE 0.7 mph 5 mph 78.5% 0 in
04:44 61.2 °F 54.5 °F 30 in NE 2 mph 3.5 mph 78.4% 0 in
04:49 61.2 °F 54.1 °F 30 in NE 1.9 mph 3.5 mph 78% 0 in
04:54 61.2 °F 54.1 °F 30 in NE 1.8 mph 3.6 mph 78% 0 in
04:59 61.2 °F 54.1 °F 30 in NE 1.8 mph 4 mph 78% 0 in
05:04 61 °F 54.3 °F 30 in NE 1.8 mph 4 mph 78.5% 0 in
05:09 61 °F 54.3 °F 30 in NE 1.1 mph 2 mph 79% 0 in
05:14 61 °F 54.3 °F 30 in Calm     79% 0 in
05:19 61 °F 54.3 °F 30 in Calm     79% 0 in
05:24 61 °F 54.3 °F 30 in Calm     79% 0 in
05:29 61 °F 54.3 °F 30 in Calm     79% 0 in
05:34 61 °F 54.3 °F 30 in Calm     79% 0 in
05:39 61 °F 54.3 °F 30 in Calm     79% 0 in
05:44 60.8 °F 54.3 °F 30 in Calm     79% 0 in
05:49 60.6 °F 54.1 °F 30 in Calm     79% 0 in
05:54 60.6 °F 54.3 °F 30 in Calm     79.8% 0 in
05:59 60.4 °F 54.1 °F 30 in Calm     80% 0 in
06:04 60.4 °F 54.1 °F 30 in Calm     80% 0 in
06:09 60.3 °F 54.1 °F 30 in Calm     80% 0 in
06:14 60.3 °F 54 °F 30 in Calm     80% 0 in
06:19 60.1 °F 54 °F 30 in Calm     80% 0 in
06:24 60.1 °F 54.1 °F 30 in Calm     80.9% 0 in
06:29 60.1 °F 54.1 °F 30 in Calm     81% 0 in
06:34 60.1 °F 54.7 °F 30 in Calm     81.9% 0 in
06:39 60.3 °F 54.7 °F 30 in Calm     82% 0 in
06:44 60.3 °F 54.3 °F 30 in Calm   4.6 mph 81% 0 in
06:49 60.3 °F 53.2 °F 30 in SO 0.7 mph 5.8 mph 77.8% 0 in
06:54 60.3 °F 53.1 °F 30 in SO 2 mph 6 mph 77% 0 in
06:59 60.4 °F 53.2 °F 30 in SO 2.2 mph 5 mph 77% 0 in
07:04 60.4 °F 53.2 °F 30 in Sur 2.4 mph 5.2 mph 77% 0 in
07:09 60.3 °F 53.1 °F 30 in Sur 2.7 mph 5.8 mph 77% 0 in
07:14 60.3 °F 53.4 °F 30 in SSO 3.1 mph 6 mph 77.8% 0 in
07:19 60.4 °F 53.4 °F 30 in SSO 3.3 mph 6 mph 78% 0 in
07:24 60.4 °F 53.6 °F 30 in Sur 3.6 mph 5 mph 78% 0 in
07:29 60.6 °F 53.6 °F 30 in SSO 3.3 mph 5 mph 78% 0 in
07:34 60.6 °F 53.4 °F 30 in SSO 2.9 mph 5 mph 77% 0 in
07:39 61 °F 53.6 °F 30 in SSO 2.9 mph 5 mph 77% 0 in
07:44 61.2 °F 53.8 °F 30 in SSO 2.9 mph 5 mph 77% 0 in
07:49 61.3 °F 54 °F 30 in SSO 2.4 mph 4 mph 76.4% 0 in
07:54 61.7 °F 54.1 °F 30 in SSO 1.4 mph 3.6 mph 76% 0 in
07:59 61.9 °F 54.1 °F 30 in SO 1.7 mph 4 mph 75.7% 0 in
08:04 62.1 °F 54.7 °F 30 in OSO 2 mph 4 mph 77% 0 in
08:09 62.2 °F 55.6 °F 30 in OSO 2 mph 4.6 mph 78.9% 0 in
08:14 62.4 °F 56.1 °F 30 in Oeste 2 mph 5 mph 79.7% 0 in
08:19 62.4 °F 55.8 °F 30 in Oeste 2 mph 5 mph 79% 0 in
08:24 62.4 °F 56.1 °F 30 in Oeste 2 mph 5 mph 79.5% 0 in
08:29 62.8 °F 56.5 °F 30 in ONO 2.2 mph 5 mph 80% 0 in
08:34 63 °F 56.8 °F 30 in NNO 2.4 mph 5 mph 80.4% 0 in
08:39 63.3 °F 56.3 °F 30 in SSO 2.2 mph 5.8 mph 77.9% 0 in
08:44 63.3 °F 55.6 °F 30 in SSE 1.8 mph 6.9 mph 76% 0 in
08:49 63.1 °F 55.4 °F 30 in SSE 2.9 mph 8.1 mph 76% 0 in
08:54 63.1 °F 55.8 °F 30 in SSE 4.7 mph 8 mph 77% 0 in
08:59 63.1 °F 56.5 °F 30 in Sur 4.7 mph 7.4 mph 78.8% 0 in
09:04 63.3 °F 57 °F 30 in Sur 4.7 mph 7 mph 80% 0 in
09:09 63.3 °F 57.4 °F 30 in Sur 4.5 mph 7 mph 81% 0 in
09:14 63.7 °F 57.6 °F 30 in SSO 4.3 mph 6.9 mph 80.8% 0 in
09:19 63.9 °F 57.6 °F 30 in Sur 4.3 mph 7.4 mph 80% 0 in
09:24 64 °F 57.6 °F 30 in SO 4.3 mph 7 mph 79.4% 0 in
09:29 64.2 °F 57.6 °F 30 in Sur 4.2 mph 6.2 mph 78.9% 0 in
09:34 64.8 °F 57.6 °F 30 in Sur 4 mph 6 mph 78% 0 in
09:39 64.9 °F 57.9 °F 30 in Sur 3.9 mph 6 mph 77.7% 0 in
09:44 65.3 °F 57.9 °F 30 in SSO 3.6 mph 6 mph 77% 0 in
09:49 65.7 °F 58.1 °F 30 in SSO 3.6 mph 6 mph 76.5% 0 in
09:54 66.2 °F 58.1 °F 30 in SSE 3.6 mph 6 mph 75.5% 0 in
09:59 66.7 °F 58.1 °F 30 in SSO 3.3 mph 5.2 mph 73.9% 0 in
10:04 67.1 °F 57.7 °F 30 in SSO 2.9 mph 5 mph 72.3% 0 in
10:09 67.6 °F 57.9 °F 30 in SSE 2.5 mph 4 mph 71.4% 0 in
10:14 68.5 °F 58.1 °F 30 in SSE 1.8 mph 3.6 mph 69.6% 0 in
10:19 69.3 °F 58.1 °F 30 in SSO 1.7 mph 4.6 mph 67.8% 0 in
10:24 69.6 °F 57.9 °F 30 in ONO 1.4 mph 5 mph 66.3% 0 in
10:29 69.8 °F 57.4 °F 30 in SSO 1.6 mph 6.4 mph 64.6% 0 in
10:34 69.8 °F 57 °F 30 in SO 2 mph 7 mph 63.7% 0 in
10:39 70.3 °F 57 °F 30 in SSE 1.9 mph 5 mph 62.8% 0 in
10:44 70.9 °F 56.3 °F 30 in Oeste 1.8 mph 5 mph 60% 0 in
10:49 71.2 °F 56.1 °F 30 in OSO 1.8 mph 4.7 mph 59.1% 0 in
10:54 71.6 °F 54.9 °F 30 in Este 1.8 mph 5.2 mph 55.5% 0 in
10:59 72 °F 53.6 °F 30 in North 2.2 mph 5 mph 52.5% 0 in
11:04 72.3 °F 53.6 °F 30 in NNE 2.9 mph 5 mph 51.7% 0 in
11:09 73.2 °F 54.3 °F 30 in Este 2.5 mph 4.6 mph 51.7% 0 in
11:14 73.9 °F 53.6 °F 30 in NE 1.8 mph 5.9 mph 49.3% 0 in
11:19 74.1 °F 51.8 °F 30 in ENE 2.2 mph 6 mph 45.7% 0 in
11:24 74.1 °F 49.8 °F 30 in NE 2.9 mph 6 mph 42.3% 0 in
11:29 74.3 °F 48.6 °F 30 in NE 2.7 mph 6 mph 40.2% 0 in
11:34 74.8 °F 49.6 °F 30 in NE 2.4 mph 5 mph 41.3% 0 in
11:39 75.6 °F 50.4 °F 30 in NE 1.5 mph 4.7 mph 41.4% 0 in
11:44 75.9 °F 50 °F 30 in Calm   5 mph 40.1% 0 in
11:49 76.1 °F 50 °F 30 in SSE 1.1 mph 5.8 mph 40% 0 in
11:54 76.5 °F 50.2 °F 30 in North 2.9 mph 6.2 mph 40% 0 in
11:59 76.5 °F 50.5 °F 30 in NE 2.9 mph 6 mph 40.3% 0 in
12:04 76.8 °F 50.7 °F 30 in NNE 2.9 mph 8.5 mph 40.2% 0 in
12:09 76.8 °F 50.5 °F 30 in ONO 3.2 mph 9 mph 39.9% 0 in
12:14 77 °F 51.1 °F 30 in ENE 3.6 mph 9.2 mph 40.4% 0 in
12:19 77.4 °F 51.4 °F 30 in NE 3.7 mph 9 mph 40.4% 0 in
12:24 77.5 °F 51.1 °F 30 in Oeste 4 mph 9.2 mph 39.8% 0 in
12:29 77.5 °F 50.9 °F 30 in NE 4.1 mph 9 mph 39.3% 0 in
12:34 77.7 °F 51.3 °F 30 in ENE 4.3 mph 9.2 mph 39.6% 0 in
12:39 78.3 °F 51.4 °F 30 in North 4.2 mph 8.5 mph 39.2% 0 in
12:44 78.6 °F 50.7 °F 30 in ENE 4 mph 9 mph 37.9% 0 in
12:49 79.2 °F 50.7 °F 30 in ENE 3.6 mph 7 mph 37.1% 0 in
12:54 79.9 °F 50.4 °F 30 in NE 2.9 mph 6.9 mph 35.8% 0 in
12:59 80.2 °F 49.6 °F 30 in NO 2.7 mph 7 mph 34.4% 0 in
13:04 80.4 °F 49.6 °F 30 in NE 2.4 mph 10.7 mph 34.1% 0 in
13:09 80.2 °F 49.1 °F 30 in NNE 3.3 mph 11 mph 33.8% 0 in
13:14 80.6 °F 48 °F 30 in NE 4.7 mph 10.4 mph 31.9% 0 in
13:19 80.8 °F 47.8 °F 30 in NE 4.7 mph 10.4 mph 31.6% 0 in
13:24 81 °F 48 °F 30 in ENE 4.7 mph 9.2 mph 31.7% 0 in
13:29 81.1 °F 48 °F 30 in NE 4.7 mph 9 mph 31.5% 0 in
13:34 81.7 °F 47.8 °F 30 in ESE 4.7 mph 6.9 mph 30.5% 0 in
13:39 82.2 °F 46.9 °F 30 in SSE 4.3 mph 7 mph 29.1% 0 in
13:44 82.8 °F 46.9 °F 30 in Este 3.6 mph 9.7 mph 28.8% 0 in
13:49 82.9 °F 45.1 °F 30 in Este 4 mph 15 mph 26.5% 0 in
13:54 83.3 °F 45 °F 30 in ESE 4.7 mph 15 mph 26.1% 0 in
13:59 83.7 °F 44.8 °F 30 in Este 4.4 mph 9.2 mph 25.7% 0 in
14:04 83.8 °F 44.8 °F 30 in Este 4 mph 12.7 mph 25.5% 0 in
14:09 84 °F 45 °F 30 in ESE 4.8 mph 13 mph 25.5% 0 in
14:14 84.4 °F 45.1 °F 30 in Este 6.4 mph 13 mph 25.4% 0 in
14:19 84.2 °F 46.8 °F 30 in Este 6.4 mph 15.2 mph 27.3% 0 in
14:24 83.8 °F 48.2 °F 30 in Este 6.4 mph 15.2 mph 28.9% 0 in
14:29 83.5 °F 49.6 °F 30 in ESE 7.5 mph 16.1 mph 30.8% 0 in
14:34 83.3 °F 49.8 °F 30 in ESE 9.2 mph 17.5 mph 31.3% 0 in
14:39 83.3 °F 50.2 °F 30 in ESE 9.8 mph 17 mph 31.9% 0 in
14:44 83.7 °F 49.8 °F 30 in ESE 10.7 mph 16.1 mph 31.2% 0 in
14:49 83.7 °F 50 °F 30 in ESE 9.9 mph 16.1 mph 31.4% 0 in
14:54 83.7 °F 50 °F 30 in ESE 8.7 mph 16.1 mph 31.3% 0 in
14:59 83.8 °F 50.4 °F 30 in ESE 9.3 mph 16 mph 31.5% 0 in
15:04 84.2 °F 51.3 °F 30 in ESE 10.2 mph 17.3 mph 32% 0 in
15:09 84.4 °F 51.3 °F 29.9 in ESE 9.8 mph 17 mph 32.1% 0 in
15:14 84.7 °F 51.4 °F 29.9 in ESE 9.2 mph 15 mph 31.9% 0 in
15:19 84.7 °F 51.3 °F 29.9 in ESE 8.9 mph 15 mph 31.6% 0 in
15:24 84.9 °F 52 °F 29.9 in SE 8.5 mph 14 mph 32.2% 0 in
15:29 84.9 °F 52.2 °F 29.9 in SE 8.1 mph 15 mph 32.4% 0 in
15:34 84.6 °F 52.2 °F 29.9 in ESE 7.4 mph 15 mph 32.9% 0 in
15:39 84.6 °F 52.3 °F 29.9 in ESE 7.8 mph 16.1 mph 33.1% 0 in
15:44 84.4 °F 53.1 °F 29.9 in ESE 8.5 mph 16.1 mph 34.1% 0 in
15:49 84.9 °F 53.6 °F 29.9 in Este 8.6 mph 15 mph 34.2% 0 in
15:54 84.9 °F 53.4 °F 29.9 in ESE 8.7 mph 18.4 mph 34% 0 in
15:59 84.4 °F 53.1 °F 29.9 in ESE 9.8 mph 18.4 mph 34.3% 0 in
16:04 84.6 °F 53.1 °F 29.9 in ESE 11.2 mph 18 mph 34% 0 in
16:09 84.7 °F 52.7 °F 29.9 in SE 10.7 mph 16.8 mph 33.3% 0 in
16:14 84.7 °F 52.3 °F 29.9 in ESE 10 mph 17.3 mph 32.9% 0 in
16:19 84.6 °F 51.8 °F 29.9 in ESE 10.1 mph 18.4 mph 32.4% 0 in
16:24 84.4 °F 51.8 °F 29.9 in ESE 10.2 mph 18 mph 32.5% 0 in
16:29 84.7 °F 51.6 °F 29.9 in ESE 10.1 mph 17.3 mph 32% 0 in
16:34 84.9 °F 51.6 °F 29.9 in ESE 10 mph 17.3 mph 31.9% 0 in
16:39 84.9 °F 50.9 °F 29.9 in ESE 10.3 mph 18.4 mph 31% 0 in
16:44 84.7 °F 50.9 °F 29.9 in ESE 10.7 mph 18.5 mph 31.2% 0 in
16:49 84.7 °F 50.9 °F 29.9 in SE 10.7 mph 19 mph 31% 0 in
16:54 84.7 °F 50 °F 29.9 in SE 10.7 mph 18.4 mph 30% 0 in
16:59 84.6 °F 50.5 °F 29.9 in SE 10.4 mph 18 mph 30.9% 0 in
17:04 84.2 °F 50.2 °F 29.9 in ESE 10 mph 17.3 mph 31% 0 in
17:09 83.8 °F 49.6 °F 29.9 in ESE 9.5 mph 15.2 mph 30.6% 0 in
17:14 83.7 °F 49.8 °F 29.9 in ESE 8.7 mph 19 mph 31% 0 in
17:19 83.3 °F 49.6 °F 29.9 in ESE 9.2 mph 19 mph 31% 0 in
17:24 83.5 °F 49.6 °F 29.9 in ESE 10 mph 17.3 mph 30.9% 0 in
17:29 83.5 °F 49.8 °F 29.9 in ESE 9.9 mph 19.6 mph 31% 0 in
17:34 83.3 °F 50.4 °F 29.9 in ESE 9.7 mph 20 mph 32% 0 in
17:39 83.3 °F 49.6 °F 29.9 in ESE 9.9 mph 19 mph 31.1% 0 in
17:44 83.1 °F 48 °F 29.9 in SE 10.2 mph 21.5 mph 29.6% 0 in
17:49 82.9 °F 47.3 °F 29.9 in ESE 10.4 mph 22 mph 28.8% 0 in
17:54 82.8 °F 46 °F 29.9 in ESE 10.7 mph 21.9 mph 27.6% 0 in
17:59 82.8 °F 44.6 °F 29.9 in ESE 11 mph 22 mph 26.4% 0 in
18:04 82.8 °F 42.8 °F 29.9 in ESE 11.4 mph 21 mph 24.5% 0 in
18:09 82.8 °F 42.3 °F 29.9 in ESE 10.9 mph 21 mph 23.9% 0 in
18:14 82.8 °F 42.3 °F 29.9 in ESE 10 mph 16.3 mph 23.9% 0 in
18:19 82.8 °F 42.3 °F 29.9 in ESE 9.7 mph 16.1 mph 24% 0 in
18:24 82.8 °F 42.3 °F 29.9 in ESE 9.2 mph 17.3 mph 24% 0 in
18:29 82.6 °F 42.1 °F 29.9 in ESE 9.8 mph 17.3 mph 24% 0 in
18:34 82.6 °F 42.1 °F 29.9 in SE 10.7 mph 15 mph 24% 0 in
18:39 82.6 °F 42.1 °F 29.9 in SE 10.1 mph 15 mph 24% 0 in
18:44 82.4 °F 42.6 °F 29.9 in SE 9.2 mph 15 mph 24.7% 0 in
18:49 82.4 °F 42.4 °F 29.9 in ESE 8.8 mph 14 mph 24.5% 0 in
18:54 82.4 °F 42.8 °F 29.9 in SE 8.1 mph 13 mph 24.7% 0 in
18:59 82.4 °F 42.3 °F 29.9 in SE 7.5 mph 12 mph 24.2% 0 in
19:04 82.2 °F 42.6 °F 29.9 in SE 6.4 mph 12 mph 24.7% 0 in
19:09 82.4 °F 42.4 °F 29.9 in SE 6 mph 13.8 mph 24.5% 0 in
19:14 82 °F 42.6 °F 29.9 in ESE 5.4 mph 14 mph 25% 0 in
19:19 82 °F 42.6 °F 29.9 in SE 6 mph 12 mph 25% 0 in
19:24 82 °F 42.8 °F 29.9 in SE 6.9 mph 13 mph 25.1% 0 in
19:29 82 °F 43.7 °F 29.9 in SE 6.9 mph 13 mph 25.8% 0 in
19:34 82 °F 43.7 °F 29.9 in ESE 6.9 mph 11.5 mph 26% 0 in
19:39 81.9 °F 43.9 °F 29.9 in SE 6.6 mph 12 mph 26.2% 0 in
19:44 81.7 °F 44.2 °F 29.9 in ESE 6.2 mph 9.2 mph 26.8% 0 in
19:49 81.7 °F 44.4 °F 29.9 in ESE 5.9 mph 10.4 mph 27% 0 in
19:54 81.7 °F 44.2 °F 29.9 in ESE 5.4 mph 10 mph 26.9% 0 in
19:59 81.7 °F 44.2 °F 29.9 in ESE 5.3 mph 9 mph 26.9% 0 in
20:04 81.7 °F 44.2 °F 29.9 in ESE 5.2 mph 8.1 mph 26.8% 0 in
20:09 81.7 °F 43.5 °F 29.9 in ESE 5 mph 9.7 mph 26.1% 0 in
20:14 81.7 °F 43.3 °F 29.9 in SE 4.7 mph 10 mph 26% 0 in
20:19 81.3 °F 43.3 °F 29.9 in SE 5 mph 9.2 mph 26.1% 0 in
20:24 81.1 °F 44.1 °F 29.9 in ESE 5.4 mph 9 mph 27% 0 in
20:29 81 °F 44.6 °F 29.9 in ESE 5.3 mph 8.1 mph 27.9% 0 in
20:34 80.4 °F 44.4 °F 29.9 in ESE 5.2 mph 8 mph 28.1% 0 in
20:39 80.2 °F 45 °F 29.9 in ESE 4.8 mph 9.2 mph 29% 0 in
20:44 79.9 °F 45 °F 29.9 in ESE 4.3 mph 9.2 mph 29.3% 0 in
20:49 79.3 °F 45.3 °F 29.9 in Este 4.3 mph 8.1 mph 30% 0 in
20:54 79.2 °F 45.1 °F 29.9 in ENE 4.3 mph 8 mph 30.2% 0 in
20:59 78.6 °F 45.9 °F 29.9 in NE 4.5 mph 8.5 mph 31.4% 0 in
21:04 78.3 °F 50.4 °F 29.9 in NNE 4.7 mph 11.5 mph 38% 0 in
21:09 77.2 °F 54.7 °F 29.9 in NNE 5.7 mph 12 mph 46% 0 in
21:14 76.1 °F 55.8 °F 29.9 in NE 7.4 mph 11.5 mph 49.2% 0 in
21:19 75.6 °F 55.6 °F 29.9 in NE 7 mph 12 mph 50.2% 0 in
21:24 75.2 °F 54.1 °F 29.9 in NE 6.4 mph 12.7 mph 48.1% 0 in
21:29 74.8 °F 55.8 °F 29.9 in NNE 6.4 mph 13 mph 51.4% 0 in
21:34 74.7 °F 54 °F 29.9 in NNE 6.4 mph 9 mph 48.6% 0 in
21:39 74.3 °F 57.6 °F 29.9 in NNE 6.3 mph 14 mph 56% 0 in
21:44 73.4 °F 58.3 °F 29.9 in NNE 6.2 mph 14 mph 59.2% 0 in
21:49 72.7 °F 58.1 °F 29.9 in NE 6.9 mph 13.8 mph 60% 0 in
21:54 72.3 °F 58.1 °F 29.9 in NE 8.1 mph 14 mph 61% 0 in
21:59 72.1 °F 58.6 °F 29.9 in NE 7.8 mph 14 mph 62.6% 0 in
22:04 71.8 °F 59 °F 29.9 in NNE 7.4 mph 13.5 mph 64.3% 0 in
22:09 71.2 °F 59.2 °F 29.9 in NE 7.8 mph 14 mph 65.9% 0 in
22:14 70.9 °F 59.4 °F 29.9 in NNE 8.5 mph 14 mph 67% 0 in
22:19 70.3 °F 59.5 °F 29.9 in NE 8.8 mph 14 mph 68.6% 0 in
22:24 70.2 °F 59.9 °F 29.9 in NNE 9.2 mph 14 mph 70.1% 0 in
22:29 69.8 °F 60.1 °F 29.9 in NNE 8.8 mph 13.8 mph 71.5% 0 in
22:34 69.4 °F 60.3 °F 29.9 in NNE 8.1 mph 14 mph 72.7% 0 in
22:39 69.3 °F 60.3 °F 29.9 in NE 8.5 mph 16.1 mph 73% 0 in
22:44 69.3 °F 60.1 °F 29.9 in NE 9.2 mph 16 mph 73% 0 in
22:49 69.1 °F 60.3 °F 29.9 in NE 8.5 mph 14 mph 73.4% 0 in
22:54 68.9 °F 60.3 °F 29.9 in NE 7.4 mph 11 mph 74% 0 in
22:59 68.7 °F 60.1 °F 29.9 in NNE 7.2 mph 11 mph 74% 0 in
23:04 68.5 °F 59.9 °F 29.9 in NE 6.9 mph 10.7 mph 74% 0 in
23:09 68.4 °F 59.7 °F 29.9 in NE 6.6 mph 11 mph 74% 0 in
23:14 68.4 °F 59.7 °F 29.9 in NE 6.2 mph 10 mph 74% 0 in
23:19 68.2 °F 59.5 °F 29.9 in NNE 6.5 mph 12.7 mph 74.1% 0 in
23:24 67.8 °F 59.4 °F 29.9 in NNE 6.9 mph 13 mph 74.4% 0 in
23:29 67.6 °F 59.5 °F 29.9 in NNE 6.9 mph 13 mph 75% 0 in
23:34 67.6 °F 59.7 °F 29.9 in NNE 6.9 mph 11 mph 75.9% 0 in
23:39 67.6 °F 59.9 °F 29.9 in NNE 6.6 mph 11.5 mph 76.2% 0 in
23:44 67.6 °F 60.3 °F 29.9 in NNE 6.2 mph 12 mph 77% 0 in
23:49 67.6 °F 60.3 °F 29.9 in NE 6.3 mph 10.4 mph 77.3% 0 in
23:54 67.6 °F 60.4 °F 29.9 in NE 6.4 mph 10.7 mph 78% 0 in
23:59 67.5 °F 60.6 °F 29.9 in NNE 6.2 mph 11 mph 78.9% 0 in
Murcia-Puente Tocinos, España
Compliments of Weather Underground - 3 mb

La estación de MeteoMurcia.com, publica sus datos en los siguientes proyectos:

Weather Underground PWS IMURCIAP2 Meteoclimatic www.awekas.at

W3Counter
Web Analytics